< < Back
Terminal Aerodrome Forecast


Current Version              Previous Versions:   1  2  3  4  5  6  7  8  9  

Terminal Aerodrome Forecast

976
FTUS42 KFFC 240524
TAFFTY
TAF
KFTY 240524Z 2406/2506 20009KT P6SM OVC018
     FM240900 22009KT 6SM BR OVC008
     FM241400 24010G18KT P6SM BKN015 OVC030
     FM241700 25012G22KT P6SM BKN035
     FM242100 27010G20KT P6SM SCT040
     FM250000 30009KT P6SM SCT080=

Latest METAR

068
SAUS70 KWBC 241600
MTRFTY
METAR KFTY 241553Z 23009KT 10SM SCT030 21/14 A2981 RMK AO2 SLP089
T02060144


USA.gov is the U.S. government's official web portal to all federal, state and local government web resources and services.